Time;durP1;ratioP1;P1;durP2;ratioP2;P2;SDS_P1;SDS_P2;PMS_P1;PMS_P2;Temp;Humidity;BMP_temperature;BMP_pressure;BME280_temperature;BME280_humidity;BME280_pressure;Samples;Min_cycle;Max_cycle;Signal;HPM_P1;HPM_P2
2022/10/11 00:01:48;;;;;;;;;3.00;0.50;;;;;15.51;55.98;101749.09;5089146;27;52692;-40
2022/10/11 00:04:13;;;;;;;;;3.00;1.50;;;;;15.48;55.65;101750.09;5097224;27;45267;-40
2022/10/11 00:06:38;;;;;;;;;3.75;3.00;;;;;15.48;55.75;101752.72;5097125;27;60822;-41
2022/10/11 00:09:05;;;;;;;;;3.50;2.00;;;;;15.47;55.94;101753.63;5096408;27;45755;-41
2022/10/11 00:11:31;;;;;;;;;4.00;2.75;;;;;15.50;55.61;101755.31;5072912;27;47068;-40
2022/10/11 00:13:57;;;;;;;;;4.75;3.50;;;;;15.50;55.54;101752.69;5097939;27;45433;-45
2022/10/11 00:16:23;;;;;;;;;2.75;1.75;;;;;15.49;55.60;101758.84;5088479;27;45251;-44
2022/10/11 00:18:48;;;;;;;;;5.25;2.75;;;;;15.49;55.83;101764.13;5095143;27;45220;-40
2022/10/11 00:21:15;;;;;;;;;1.50;1.50;;;;;15.50;55.59;101765.88;5075071;27;71952;-40
2022/10/11 00:23:41;;;;;;;;;6.50;1.75;;;;;15.49;55.89;101765.00;5097070;27;45907;-42
2022/10/11 00:26:08;;;;;;;;;5.25;3.75;;;;;15.50;55.95;101763.22;5081415;27;45363;-40
2022/10/11 00:28:35;;;;;;;;;3.75;3.00;;;;;15.49;55.83;101767.66;5096533;27;45330;-40
2022/10/11 00:31:01;;;;;;;;;2.75;2.75;;;;;15.47;55.62;101768.59;5082559;27;45335;-40
2022/10/11 00:33:26;;;;;;;;;5.25;1.75;;;;;15.44;55.66;101763.41;5092020;27;45591;-40
2022/10/11 00:35:51;;;;;;;;;4.50;2.75;;;;;15.42;55.73;101759.94;5083227;27;45471;-40
2022/10/11 00:38:17;;;;;;;;;5.25;1.75;;;;;15.42;55.31;101767.88;5089185;27;47881;-40
2022/10/11 00:40:43;;;;;;;;;1.25;1.25;;;;;15.40;55.45;101770.53;5099832;27;45471;-39
2022/10/11 00:43:17;;;;;;;;;1.50;1.25;;;;;15.37;55.44;101776.78;5094442;27;45340;-39
2022/10/11 00:45:58;;;;;;;;;0.50;0.50;;;;;15.33;55.56;101772.53;5088234;27;45492;-41
2022/10/11 00:48:28;;;;;;;;;2.25;2.25;;;;;15.33;55.46;101776.91;5095504;27;45559;-40
2022/10/11 00:50:55;;;;;;;;;5.00;2.00;;;;;15.32;55.35;101781.34;5078298;27;45442;-41
2022/10/11 00:53:21;;;;;;;;;2.00;1.50;;;;;15.33;55.19;101782.19;5078520;27;45362;-41
2022/10/11 00:56:09;;;;;;;;;3.50;2.25;;;;;15.33;55.13;101779.56;5079220;27;45563;-40
2022/10/11 00:58:35;;;;;;;;;5.50;1.00;;;;;15.33;54.99;101776.91;5080384;27;45324;-40
2022/10/11 01:01:00;;;;;;;;;3.00;0.75;;;;;15.34;55.20;101781.28;5068080;27;45913;-40
2022/10/11 01:03:27;;;;;;;;;3.00;1.50;;;;;15.31;55.10;101770.84;5092553;27;45448;-40
2022/10/11 01:05:52;;;;;;;;;5.00;2.00;;;;;15.28;54.82;101779.72;5072792;27;45473;-39
2022/10/11 01:08:18;;;;;;;;;2.75;1.50;;;;;15.27;55.07;101782.41;5079743;27;61759;-41
2022/10/11 01:10:43;;;;;;;;;4.50;2.50;;;;;15.24;54.64;101778.06;5084125;27;60231;-40
2022/10/11 01:13:23;;;;;;;;;2.00;2.00;;;;;15.24;54.96;101779.84;5098587;27;45344;-41
2022/10/11 01:15:58;;;;;;;;;3.75;1.25;;;;;15.23;54.97;101778.09;5088479;27;45676;-40
2022/10/11 01:18:30;;;;;;;;;6.25;3.00;;;;;15.22;54.33;101773.75;5094340;27;45491;-40
2022/10/11 01:21:40;;;;;;;;;8.00;4.50;;;;;15.19;54.42;101775.56;5079605;27;45570;-40
2022/10/11 01:24:24;;;;;;;;;4.25;2.50;;;;;15.19;54.42;101772.06;4984063;28;45523;-40
2022/10/11 01:26:52;;;;;;;;;2.25;2.00;;;;;15.15;54.61;101781.81;4975671;28;45521;-40
2022/10/11 01:29:44;;;;;;;;;4.00;1.00;;;;;15.11;54.10;101779.34;5055657;27;45633;-40
2022/10/11 01:32:26;;;;;;;;;1.50;0.50;;;;;15.06;54.50;101773.34;5080586;27;46272;-40
2022/10/11 01:35:02;;;;;;;;;1.75;1.75;;;;;15.00;54.06;101783.16;5077481;27;45529;-41
2022/10/11 01:37:37;;;;;;;;;5.00;1.50;;;;;14.94;54.22;101779.81;5075564;27;45262;-40
2022/10/11 01:40:13;;;;;;;;;4.00;2.00;;;;;14.91;54.45;101772.00;5087943;27;45477;-40
2022/10/11 01:42:39;;;;;;;;;4.75;2.00;;;;;14.88;54.32;101778.22;5073729;27;45407;-41
2022/10/11 01:45:15;;;;;;;;;1.75;1.75;;;;;14.85;54.05;101782.72;5075639;27;45674;-40
2022/10/11 01:47:41;;;;;;;;;6.25;2.00;;;;;14.80;54.50;101780.19;5077858;27;45458;-40
2022/10/11 01:50:42;;;;;;;;;3.75;1.75;;;;;14.78;54.27;101782.03;5074054;27;45787;-41
2022/10/11 01:53:30;;;;;;;;;4.00;2.00;;;;;14.77;54.79;101780.31;5080206;27;45437;-40
2022/10/11 01:56:14;;;;;;;;;4.00;1.25;;;;;14.75;54.47;101777.72;5039166;27;45856;-39
2022/10/11 01:59:05;;;;;;;;;2.25;2.25;;;;;14.72;54.44;101774.28;5089607;27;45313;-39
2022/10/11 02:01:49;;;;;;;;;4.00;2.00;;;;;14.69;54.13;101772.59;5086497;27;45905;-40
2022/10/11 02:04:34;;;;;;;;;4.50;1.25;;;;;14.65;54.25;101776.22;5084521;27;45425;-40
2022/10/11 02:07:20;;;;;;;;;1.00;1.00;;;;;14.63;54.21;101779.81;5095218;27;45433;-40
2022/10/11 02:09:57;;;;;;;;;2.75;2.75;;;;;14.62;54.22;101773.66;5085558;27;45600;-40
2022/10/11 02:12:27;;;;;;;;;4.75;2.00;;;;;14.62;54.26;101781.56;5093174;27;45223;-40
2022/10/11 02:14:53;;;;;;;;;4.75;2.75;;;;;14.59;54.03;101777.28;5080765;27;46228;-41
2022/10/11 02:17:26;;;;;;;;;4.00;2.00;;;;;14.57;54.51;101772.91;5064922;27;55300;-41
2022/10/11 02:19:53;;;;;;;;;3.00;1.00;;;;;14.54;54.43;101780.91;5078546;27;45317;-40
2022/10/11 02:22:26;;;;;;;;;3.75;1.00;;;;;14.47;54.47;101774.94;5079307;27;45430;-40
2022/10/11 02:24:55;;;;;;;;;5.25;2.00;;;;;14.44;54.27;101770.59;5065130;27;47183;-39
2022/10/11 02:27:22;;;;;;;;;1.25;1.00;;;;;14.44;54.59;101782.91;5076361;27;45244;-42
2022/10/11 02:29:50;;;;;;;;;2.50;1.00;;;;;14.42;54.00;101771.53;5072916;27;45485;-40
2022/10/11 02:32:16;;;;;;;;;5.00;1.00;;;;;14.38;54.25;101767.28;5090914;27;45556;-40
2022/10/11 02:34:56;;;;;;;;;3.00;1.00;;;;;14.34;54.18;101777.03;5097713;27;46315;-40
2022/10/11 02:37:55;;;;;;;;;3.25;2.00;;;;;14.33;54.27;101783.19;5080956;27;45765;-40
2022/10/11 02:40:27;;;;;;;;;5.00;2.25;;;;;14.30;54.59;101780.63;5007999;27;45524;-40
2022/10/11 02:42:58;;;;;;;;;4.00;2.00;;;;;14.30;54.64;101785.03;5077992;27;45537;-40
2022/10/11 02:45:44;;;;;;;;;3.75;1.00;;;;;14.30;54.24;101779.78;5078660;27;46873;-40
2022/10/11 02:48:10;;;;;;;;;3.50;2.00;;;;;14.29;54.21;101786.81;5080632;27;45297;-39
2022/10/11 02:50:38;;;;;;;;;2.75;2.00;;;;;14.30;54.42;101788.53;5078792;27;45472;-40
2022/10/11 02:53:03;;;;;;;;;1.25;1.00;;;;;14.30;54.36;101788.53;5085199;27;45552;-40
2022/10/11 02:55:29;;;;;;;;;2.00;1.25;;;;;14.30;54.14;101790.28;5096741;27;46017;-40
2022/10/11 02:57:54;;;;;;;;;6.50;2.00;;;;;14.28;54.09;101781.56;5089291;27;45482;-41
2022/10/11 03:00:19;;;;;;;;;2.00;2.00;;;;;14.28;54.57;101786.84;5099255;27;45494;-39
2022/10/11 03:02:45;;;;;;;;;2.00;2.00;;;;;14.31;54.51;101792.03;5099679;27;69327;-39
2022/10/11 03:05:10;;;;;;;;;1.75;0.50;;;;;14.33;54.16;101785.81;5099559;27;66316;-40
2022/10/11 03:07:35;;;;;;;;;3.75;2.00;;;;;14.35;54.58;101784.00;5100107;27;45313;-40
2022/10/11 03:10:02;;;;;;;;;3.00;2.00;;;;;14.36;53.99;101793.66;5072990;27;45368;-42
2022/10/11 03:12:27;;;;;;;;;1.75;1.00;;;;;14.36;54.17;101788.38;5083254;27;45506;-40
2022/10/11 03:14:53;;;;;;;;;1.25;1.00;;;;;14.34;53.87;101795.47;5093211;27;65531;-41
2022/10/11 03:17:18;;;;;;;;;5.25;1.00;;;;;14.30;54.35;101788.53;5100429;27;45488;-40
2022/10/11 03:19:43;;;;;;;;;4.25;4.25;;;;;14.27;53.92;101793.88;5079066;27;45315;-42
2022/10/11 03:22:09;;;;;;;;;4.50;2.00;;;;;14.23;53.80;101794.84;5084311;27;65799;-41
2022/10/11 03:24:34;;;;;;;;;2.25;0.00;;;;;14.17;54.22;101793.25;5054634;27;70823;-40
2022/10/11 03:26:59;;;;;;;;;1.75;1.75;;;;;14.13;54.25;101807.38;5093283;27;54333;-40
2022/10/11 03:29:25;;;;;;;;;2.00;1.00;;;;;14.09;54.26;101805.72;5096663;27;61621;-39
2022/10/11 03:31:50;;;;;;;;;2.00;2.00;;;;;14.06;54.41;101803.19;5062269;27;45451;-39
2022/10/11 03:34:15;;;;;;;;;3.00;1.25;;;;;14.06;54.26;101813.72;5084679;27;47926;-40
2022/10/11 03:36:41;;;;;;;;;2.00;0.00;;;;;14.04;53.98;101804.97;5074556;27;48735;-40
2022/10/11 03:39:06;;;;;;;;;1.50;1.00;;;;;14.01;54.11;101818.22;5065434;27;45605;-40
2022/10/11 03:41:32;;;;;;;;;6.25;2.00;;;;;13.98;54.44;101810.38;5090671;27;45735;-40
2022/10/11 03:43:57;;;;;;;;;3.75;2.00;;;;;13.99;54.21;101809.50;5081126;27;50927;-40
2022/10/11 03:46:22;;;;;;;;;2.25;1.00;;;;;13.95;54.47;101803.44;5098382;27;64935;-39
2022/10/11 03:48:47;;;;;;;;;1.00;1.00;;;;;13.95;54.20;101806.06;5092669;27;63193;-39
2022/10/11 03:51:13;;;;;;;;;6.50;1.00;;;;;13.95;54.50;101811.34;5081557;27;66196;-38
2022/10/11 03:53:40;;;;;;;;;2.75;2.75;;;;;13.95;54.53;101810.44;5096715;27;45466;-41
2022/10/11 03:56:06;;;;;;;;;3.00;1.00;;;;;13.95;54.27;101813.97;5093773;27;45768;-41
2022/10/11 03:58:31;;;;;;;;;5.00;2.00;;;;;13.94;54.39;101811.38;5095150;27;45474;-40
2022/10/11 04:00:57;;;;;;;;;2.00;2.00;;;;;13.93;54.30;101813.13;5065541;27;45298;-40
2022/10/11 04:03:22;;;;;;;;;1.75;1.00;;;;;13.95;54.14;101818.34;5070629;27;46588;-41
2022/10/11 04:05:48;;;;;;;;;2.75;1.00;;;;;13.92;53.92;101811.41;5094071;27;61671;-40
2022/10/11 04:08:14;;;;;;;;;4.25;1.00;;;;;13.92;54.21;101819.31;5087498;27;45365;-40
2022/10/11 04:10:39;;;;;;;;;2.50;2.00;;;;;13.89;54.14;101814.09;5093303;27;45158;-40
2022/10/11 04:13:05;;;;;;;;;2.00;1.25;;;;;13.90;53.88;101812.31;5098363;27;45415;-40
2022/10/11 04:15:30;;;;;;;;;2.75;0.75;;;;;13.89;54.41;101815.88;5093213;27;45447;-39
2022/10/11 04:17:56;;;;;;;;;3.50;1.00;;;;;13.89;54.24;101823.78;5090765;27;45343;-40
2022/10/11 04:20:21;;;;;;;;;2.75;2.00;;;;;13.90;54.48;101823.75;5094746;27;60246;-40
2022/10/11 04:22:46;;;;;;;;;3.00;1.00;;;;;13.91;54.17;101822.81;5091310;27;50127;-40
2022/10/11 04:25:12;;;;;;;;;5.00;2.00;;;;;13.90;54.10;101820.22;5097651;27;58182;-41
2022/10/11 04:27:37;;;;;;;;;3.75;1.00;;;;;13.94;53.87;101832.44;5093251;27;45489;-41
2022/10/11 04:30:03;;;;;;;;;0.75;0.75;;;;;13.92;53.58;101832.47;5094696;27;45231;-40
2022/10/11 04:32:28;;;;;;;;;3.00;2.00;;;;;13.89;54.10;101840.41;5073433;27;45766;-40
2022/10/11 04:34:54;;;;;;;;;5.00;1.50;;;;;13.85;53.69;101839.63;5077001;28;59653;-40
2022/10/11 04:37:19;;;;;;;;;1.00;0.50;;;;;13.82;53.60;101834.41;5091691;27;45571;-42
2022/10/11 04:39:45;;;;;;;;;7.50;2.00;;;;;13.79;53.81;101836.25;5100184;27;45368;-40
2022/10/11 04:42:10;;;;;;;;;1.00;1.00;;;;;13.76;54.10;101837.22;5096714;27;52440;-39
2022/10/11 04:44:35;;;;;;;;;1.00;1.00;;;;;13.76;53.95;101837.22;5083549;27;46088;-40
2022/10/11 04:47:01;;;;;;;;;1.00;1.00;;;;;13.73;53.78;101829.38;5096488;27;45357;-39
2022/10/11 04:49:26;;;;;;;;;40.25;28.25;;;;;13.70;53.99;101826.81;5098147;27;61107;-41
2022/10/11 04:51:52;;;;;;;;;4.50;1.00;;;;;13.65;53.97;101823.41;5097760;27;58648;-40
2022/10/11 04:54:17;;;;;;;;;6.50;1.50;;;;;13.64;54.32;101827.81;5098621;27;45331;-40
2022/10/11 04:56:42;;;;;;;;;2.00;1.25;;;;;13.64;54.17;101824.31;5098307;27;45339;-40
2022/10/11 04:59:08;;;;;;;;;4.00;1.75;;;;;13.63;54.11;101826.09;5099806;27;45438;-38
2022/10/11 05:01:34;;;;;;;;;3.50;1.25;;;;;13.63;53.95;101838.38;5077329;27;64706;-38
2022/10/11 05:03:59;;;;;;;;;2.50;1.00;;;;;13.61;54.14;101833.13;5095993;27;45314;-39
2022/10/11 05:06:24;;;;;;;;;3.25;2.00;;;;;13.59;53.94;101834.09;5090723;27;45290;-38
2022/10/11 05:08:50;;;;;;;;;2.75;1.25;;;;;13.57;54.31;101828.00;5095271;27;66161;-41
2022/10/11 05:11:15;;;;;;;;;2.25;2.00;;;;;13.55;54.12;101835.91;5099307;27;61802;-39
2022/10/11 05:13:41;;;;;;;;;3.00;2.00;;;;;13.53;54.16;101828.94;5094133;27;45421;-38
2022/10/11 05:16:07;;;;;;;;;1.00;1.00;;;;;13.51;54.34;101829.00;5098898;27;45180;-40
2022/10/11 05:18:32;;;;;;;;;5.50;2.00;;;;;13.50;53.93;101831.66;5096027;27;45226;-40
2022/10/11 05:21:13;;;;;;;;;5.75;2.00;;;;;13.50;54.62;101832.50;5091092;27;45243;-39
2022/10/11 05:23:39;;;;;;;;;3.00;3.00;;;;;13.50;54.04;101837.78;5064797;27;45323;-38
2022/10/11 05:26:05;;;;;;;;;2.00;1.00;;;;;13.51;54.16;101836.00;5082208;27;45385;-39
2022/10/11 05:28:30;;;;;;;;;2.00;1.00;;;;;13.53;54.45;101837.72;5087295;27;64388;-39
2022/10/11 05:30:56;;;;;;;;;4.00;1.50;;;;;13.54;54.33;101838.56;5077262;27;47399;-39
2022/10/11 05:33:21;;;;;;;;;1.75;1.50;;;;;13.53;53.56;101837.72;5099350;27;45272;-39
2022/10/11 05:35:47;;;;;;;;;1.00;0.25;;;;;13.51;54.26;101834.25;5090195;27;45293;-39
2022/10/11 05:38:12;;;;;;;;;2.75;1.00;;;;;13.50;53.91;101836.91;5101986;27;45559;-40
2022/10/11 05:40:39;;;;;;;;;2.00;1.00;;;;;13.49;53.90;101830.78;5084551;27;45895;-39
2022/10/11 05:43:04;;;;;;;;;4.50;2.25;;;;;13.50;54.16;101831.66;5098998;27;45461;-40
2022/10/11 05:45:31;;;;;;;;;3.50;2.00;;;;;13.48;53.55;101827.28;5093646;27;45478;-40
2022/10/11 05:47:57;;;;;;;;;2.00;1.50;;;;;13.47;53.67;101822.06;5084206;27;45463;-40
2022/10/11 05:50:22;;;;;;;;;3.75;2.00;;;;;13.49;53.92;101830.78;5102516;27;45450;-39
2022/10/11 05:52:48;;;;;;;;;5.50;2.00;;;;;13.48;54.19;101827.28;5080014;27;45254;-40
2022/10/11 05:55:13;;;;;;;;;4.75;3.00;;;;;13.49;53.79;101830.78;5097283;27;61997;-40
2022/10/11 05:57:38;;;;;;;;;4.75;2.00;;;;;13.53;54.18;101831.56;5103071;27;45276;-39
2022/10/11 06:00:04;;;;;;;;;6.50;2.25;;;;;13.55;54.11;101835.91;5101139;27;69966;-42
2022/10/11 06:02:32;;;;;;;;;5.00;2.25;;;;;13.57;53.66;101834.09;5102306;27;45793;-40
2022/10/11 06:04:57;;;;;;;;;4.00;2.50;;;;;13.59;53.79;101837.56;5102536;27;45293;-39
2022/10/11 06:07:23;;;;;;;;;4.00;2.00;;;;;13.59;53.50;101832.31;5102045;27;68479;-39
2022/10/11 06:09:48;;;;;;;;;4.00;2.75;;;;;13.61;53.89;101837.53;5099916;27;45375;-38
2022/10/11 06:12:14;;;;;;;;;6.50;3.50;;;;;13.62;53.64;101842.78;5101953;27;56905;-39
2022/10/11 06:14:39;;;;;;;;;5.25;2.25;;;;;13.63;53.45;101844.50;5102420;27;45520;-42
2022/10/11 06:17:04;;;;;;;;;5.25;3.00;;;;;13.66;53.59;101851.47;5073379;28;66591;-39
2022/10/11 06:19:30;;;;;;;;;6.50;2.00;;;;;13.65;53.75;101850.59;5097365;27;56501;-39
2022/10/11 06:21:55;;;;;;;;;4.00;3.00;;;;;13.62;53.81;101855.06;5095219;27;45336;-39
2022/10/11 06:24:21;;;;;;;;;2.25;2.00;;;;;13.60;53.34;101855.09;5091518;27;45241;-39
2022/10/11 06:26:47;;;;;;;;;10.00;3.00;;;;;13.57;53.20;101860.41;5090922;27;45515;-39
2022/10/11 06:29:13;;;;;;;;;4.00;2.75;;;;;13.53;53.26;101864.00;5062548;28;47451;-39
2022/10/11 06:31:38;;;;;;;;;4.75;2.50;;;;;13.53;53.60;101866.66;5094295;27;45402;-39
2022/10/11 06:34:03;;;;;;;;;7.00;3.00;;;;;13.50;53.58;101863.22;5099141;27;56152;-40
2022/10/11 06:36:29;;;;;;;;;5.25;3.00;;;;;13.46;53.29;101863.28;5092832;27;52727;-42
2022/10/11 06:38:55;;;;;;;;;5.25;3.00;;;;;13.43;53.69;101870.34;5081491;27;45547;-40
2022/10/11 06:41:25;;;;;;;;;5.00;2.50;;;;;13.38;53.34;101872.22;5083752;27;45423;-40
2022/10/11 06:43:51;;;;;;;;;2.50;1.50;;;;;13.35;53.70;101867.00;5095997;27;45408;-40
2022/10/11 06:46:17;;;;;;;;;5.25;2.00;;;;;13.33;53.49;101863.56;5089177;27;45524;-39
2022/10/11 06:48:44;;;;;;;;;1.50;1.00;;;;;13.32;53.94;101865.31;5097566;27;45396;-40
2022/10/11 06:51:10;;;;;;;;;5.00;1.25;;;;;13.33;53.57;101866.19;5092695;27;45389;-39
2022/10/11 06:53:36;;;;;;;;;5.50;3.50;;;;;13.32;53.49;101874.97;5087476;27;45444;-39
2022/10/11 06:56:06;;;;;;;;;5.00;3.00;;;;;13.28;53.59;101869.75;5093850;27;45537;-40
2022/10/11 06:58:32;;;;;;;;;5.25;3.50;;;;;13.23;53.47;101876.84;5093698;27;46159;-40
2022/10/11 07:01:06;;;;;;;;;7.00;5.75;;;;;13.19;53.98;101875.19;5071444;27;45524;-39
2022/10/11 07:03:31;;;;;;;;;5.00;3.50;;;;;13.17;53.69;101871.69;5100633;27;45386;-40
2022/10/11 07:06:02;;;;;;;;;7.25;2.75;;;;;13.18;53.57;101876.06;5099876;27;45385;-39
2022/10/11 07:08:28;;;;;;;;;4.00;2.00;;;;;13.15;53.46;101870.88;5101245;27;45363;-39
2022/10/11 07:11:01;;;;;;;;;5.25;2.75;;;;;13.11;54.14;101877.94;5083863;27;45212;-39
2022/10/11 07:13:27;;;;;;;;;6.50;4.00;;;;;13.11;53.63;101874.47;5091405;27;45452;-40
2022/10/11 07:15:52;;;;;;;;;9.75;3.00;;;;;13.10;53.80;101881.50;5071981;28;45454;-40
2022/10/11 07:18:17;;;;;;;;;11.25;4.75;;;;;13.08;53.79;101882.41;5097350;27;46223;-40
2022/10/11 07:20:43;;;;;;;;;37.75;28.50;;;;;13.10;53.76;101886.75;5100608;27;66135;-40
2022/10/11 07:23:08;;;;;;;;;7.75;3.25;;;;;13.10;53.48;101888.47;5101666;27;45221;-40
2022/10/11 07:25:34;;;;;;;;;5.75;4.00;;;;;13.09;53.69;101890.25;5080197;28;45461;-40
2022/10/11 07:27:59;;;;;;;;;8.50;4.50;;;;;13.10;53.60;101888.47;5098732;27;66465;-40
2022/10/11 07:30:24;;;;;;;;;7.00;2.25;;;;;13.10;53.45;101897.25;5066432;27;45339;-42
2022/10/11 07:32:50;;;;;;;;;3.25;2.25;;;;;13.13;53.32;101898.09;5083476;27;47870;-40
2022/10/11 07:35:15;;;;;;;;;4.50;2.50;;;;;13.14;53.19;101902.44;5092360;27;63305;-40
2022/10/11 07:37:40;;;;;;;;;5.25;3.00;;;;;13.17;53.54;101905.88;5080780;27;45982;-40
2022/10/11 07:40:09;;;;;;;;;5.00;3.50;;;;;13.19;53.09;101895.34;5065962;27;45411;-40
2022/10/11 07:42:35;;;;;;;;;8.25;4.75;;;;;13.25;53.37;101900.50;5101011;27;45505;-40
2022/10/11 07:45:00;;;;;;;;;6.25;4.00;;;;;13.28;53.19;101905.69;5083206;27;45434;-40
2022/10/11 07:47:25;;;;;;;;;4.50;3.75;;;;;13.30;52.84;101912.63;5100387;27;68689;-40
2022/10/11 07:49:51;;;;;;;;;7.50;2.50;;;;;13.30;52.72;101919.66;5089970;27;54422;-40
2022/10/11 07:52:16;;;;;;;;;8.25;3.00;;;;;13.29;52.42;101920.56;5092913;27;45383;-40
2022/10/11 07:54:41;;;;;;;;;7.00;3.75;;;;;13.28;52.77;101924.94;5065326;27;59699;-40
2022/10/11 07:57:07;;;;;;;;;7.00;3.75;;;;;13.29;52.72;101921.41;5100301;27;45957;-40
2022/10/11 07:59:32;;;;;;;;;5.00;2.00;;;;;13.29;52.99;101929.28;5083108;27;45344;-40
2022/10/11 08:01:58;;;;;;;;;9.25;5.50;;;;;13.29;52.56;101931.94;5082730;27;45345;-40
2022/10/11 08:04:24;;;;;;;;;6.00;3.00;;;;;13.28;52.90;101935.47;5082030;27;66260;-40
2022/10/11 08:06:50;;;;;;;;;4.75;3.50;;;;;13.28;52.90;101930.22;5088393;27;46211;-41
2022/10/11 08:09:15;;;;;;;;;6.00;4.00;;;;;13.26;52.40;101933.75;5073645;28;52534;-40
2022/10/11 08:11:40;;;;;;;;;4.25;4.00;;;;;13.25;53.02;101932.88;5091387;27;60432;-40
2022/10/11 08:14:07;;;;;;;;;9.00;5.00;;;;;13.25;52.75;101932.88;5065392;27;45428;-40
2022/10/11 08:16:34;;;;;;;;;5.00;4.75;;;;;13.26;53.11;101933.75;5078798;28;46172;-41
2022/10/11 08:19:01;;;;;;;;;8.25;4.50;;;;;13.28;52.74;101937.25;5098554;27;45262;-40
2022/10/11 08:21:27;;;;;;;;;5.25;5.25;;;;;13.29;52.95;101931.94;5079260;28;45314;-40
2022/10/11 08:23:52;;;;;;;;;9.25;6.00;;;;;13.32;52.96;101936.31;5098607;27;45288;-38
2022/10/11 08:26:18;;;;;;;;;11.75;6.50;;;;;13.36;52.71;101940.59;5099698;27;46054;-39
2022/10/11 08:28:43;;;;;;;;;10.75;9.00;;;;;13.40;52.79;101944.94;5099559;27;65263;-39
2022/10/11 08:31:11;;;;;;;;;4.00;4.00;;;;;13.44;52.92;101936.06;5100959;27;45236;-39
2022/10/11 08:33:37;;;;;;;;;12.25;8.25;;;;;13.53;52.80;101942.91;5100123;27;45272;-39
2022/10/11 08:36:04;;;;;;;;;10.25;8.00;;;;;13.59;52.49;101944.53;5099904;27;57144;-38
2022/10/11 08:38:29;;;;;;;;;12.00;6.00;;;;;13.61;52.17;101943.59;5100560;27;45839;-39
2022/10/11 08:40:57;;;;;;;;;8.25;7.50;;;;;13.65;52.53;101944.41;5100119;27;55560;-39
2022/10/11 08:43:39;;;;;;;;;9.50;7.75;;;;;13.65;51.96;101942.66;5092619;27;45280;-39
2022/10/11 08:46:06;;;;;;;;;4.00;4.00;;;;;13.65;51.75;101937.41;5081738;27;46286;-39
2022/10/11 08:48:35;;;;;;;;;5.00;3.75;;;;;13.69;51.84;101951.34;5099774;27;45237;-39
2022/10/11 08:51:03;;;;;;;;;6.25;3.25;;;;;13.70;51.29;101952.22;5100481;27;45358;-40
2022/10/11 08:53:51;;;;;;;;;4.50;2.75;;;;;13.68;51.65;101952.25;5068398;27;45649;-40
2022/10/11 08:56:16;;;;;;;;;4.00;2.50;;;;;13.72;51.73;101951.28;5078687;27;46214;-40
2022/10/11 08:59:05;;;;;;;;;5.00;3.00;;;;;13.77;52.05;101951.19;5075497;28;45265;-39
2022/10/11 09:01:31;;;;;;;;;4.00;3.00;;;;;13.84;51.83;101956.28;5080302;27;45458;-39
2022/10/11 09:03:58;;;;;;;;;8.00;3.75;;;;;13.90;51.46;101947.41;5099668;27;61949;-39
2022/10/11 09:06:41;;;;;;;;;4.50;2.25;;;;;13.94;51.76;101948.22;5099993;27;47016;-39
2022/10/11 09:09:10;;;;;;;;;5.50;2.75;;;;;13.99;51.43;101956.88;5082309;28;45857;-40
2022/10/11 09:11:50;;;;;;;;;4.00;1.75;;;;;14.02;51.93;101962.94;5100575;27;45395;-40
2022/10/11 09:14:35;;;;;;;;;4.75;3.00;;;;;14.04;51.06;101955.00;5101951;27;45524;-40
2022/10/11 09:17:19;;;;;;;;;4.25;2.50;;;;;14.04;51.66;101953.25;5062467;28;47218;-41
2022/10/11 09:19:54;;;;;;;;;6.00;4.00;;;;;14.10;51.82;101952.25;5101779;27;45360;-40
2022/10/11 09:23:13;;;;;;;;;2.50;1.75;;;;;14.16;51.47;101948.59;5103803;27;45484;-40
2022/10/11 09:25:48;;;;;;;;;3.75;1.00;;;;;14.21;51.69;101941.47;5000569;28;45644;-40
2022/10/11 09:28:47;;;;;;;;;6.25;4.25;;;;;14.28;51.44;101950.09;5058127;28;45403;-39
2022/10/11 09:31:12;;;;;;;;;9.25;5.00;;;;;14.31;51.71;101945.63;5072446;28;45198;-40
2022/10/11 09:33:45;;;;;;;;;7.25;5.00;;;;;14.34;51.54;101948.19;5099737;27;55183;-40
2022/10/11 09:36:38;;;;;;;;;10.25;5.25;;;;;14.38;51.86;101947.22;5078531;27;45722;-41
2022/10/11 09:39:34;;;;;;;;;4.00;2.75;;;;;14.42;51.68;101942.75;5081874;28;46309;-40
2022/10/11 09:42:06;;;;;;;;;6.75;4.00;;;;;14.44;51.44;101946.19;5072851;27;45281;-40
2022/10/11 09:44:35;;;;;;;;;3.25;3.00;;;;;14.46;51.36;101941.75;5103373;27;45327;-40
2022/10/11 09:47:01;;;;;;;;;5.50;4.00;;;;;14.46;51.66;101936.47;5081685;28;45455;-40
2022/10/11 09:49:37;;;;;;;;;7.75;3.50;;;;;14.50;51.22;101938.16;5099206;27;45291;-40
2022/10/11 09:52:06;;;;;;;;;4.00;3.00;;;;;14.52;51.28;101939.00;5100274;27;45241;-40
2022/10/11 09:54:41;;;;;;;;;6.00;3.00;;;;;14.54;51.33;101942.44;5103443;27;45342;-40
2022/10/11 09:57:18;;;;;;;;;5.25;3.50;;;;;14.57;51.84;101936.22;5103266;27;45387;-40
2022/10/11 09:59:58;;;;;;;;;4.75;3.00;;;;;14.66;51.45;101932.53;5101182;27;45387;-40
2022/10/11 10:02:24;;;;;;;;;4.50;2.25;;;;;14.74;51.80;101935.84;5098607;27;45370;-40
2022/10/11 10:04:52;;;;;;;;;4.00;4.00;;;;;14.81;51.28;101932.16;5100588;27;45324;-40
2022/10/11 10:07:17;;;;;;;;;4.50;3.50;;;;;14.86;51.80;101927.63;5100669;27;45511;-40
2022/10/11 10:09:42;;;;;;;;;3.00;2.00;;;;;14.91;51.54;101927.50;5078260;28;46067;-40
2022/10/11 10:12:13;;;;;;;;;6.00;4.00;;;;;14.96;51.26;101930.88;5077354;27;61116;-40
2022/10/11 10:14:40;;;;;;;;;3.25;2.50;;;;;14.99;51.06;101931.66;5082034;27;45340;-41
2022/10/11 10:17:14;;;;;;;;;6.25;3.75;;;;;15.03;50.96;101934.22;5103056;27;45315;-40
2022/10/11 10:19:49;;;;;;;;;4.00;2.50;;;;;15.08;51.05;101938.47;5101231;27;46125;-40
2022/10/11 10:22:17;;;;;;;;;7.75;2.00;;;;;15.12;51.38;101931.34;5097099;27;45895;-40
2022/10/11 10:24:43;;;;;;;;;7.00;2.50;;;;;15.17;51.04;101926.81;5083476;27;45300;-40
2022/10/11 10:27:21;;;;;;;;;6.00;3.50;;;;;15.20;51.21;101932.00;5102586;27;53228;-40
2022/10/11 10:30:02;;;;;;;;;4.50;3.00;;;;;15.25;51.01;101939.81;5102476;27;46464;-38
2022/10/11 10:32:41;;;;;;;;;5.00;3.50;;;;;15.27;50.91;101936.22;5102621;27;45798;-39
2022/10/11 10:35:13;;;;;;;;;4.75;2.50;;;;;15.30;51.04;101938.78;5102422;27;45321;-38
2022/10/11 10:38:00;;;;;;;;;6.50;4.50;;;;;15.37;51.18;101931.56;5098357;27;45422;-39
2022/10/11 10:40:39;;;;;;;;;5.00;3.50;;;;;15.43;51.55;101930.53;5096374;27;46103;-38
2022/10/11 10:43:05;;;;;;;;;2.25;2.25;;;;;15.49;50.96;101931.22;5081071;27;45938;-38
2022/10/11 10:45:49;;;;;;;;;4.75;3.25;;;;;15.52;51.04;101930.25;5098380;27;45301;-39
2022/10/11 10:48:28;;;;;;;;;5.25;3.00;;;;;15.56;50.90;101931.88;5102221;27;45339;-39
2022/10/11 10:51:12;;;;;;;;;3.50;3.50;;;;;15.56;51.53;101926.59;5101984;27;45526;-39
2022/10/11 10:53:47;;;;;;;;;5.00;3.75;;;;;15.65;50.92;101925.47;5070313;27;45431;-39
2022/10/11 10:56:26;;;;;;;;;2.75;0.00;;;;;15.68;51.00;101933.31;5102524;27;45272;-38
2022/10/11 10:59:00;;;;;;;;;7.25;3.50;;;;;15.72;51.09;101924.38;5080137;28;45199;-40
2022/10/11 11:01:28;;;;;;;;;4.75;3.50;;;;;15.77;51.32;101930.44;5073141;28;47166;-40
2022/10/11 11:04:15;;;;;;;;;4.25;2.75;;;;;15.83;51.30;101926.72;5083287;27;45936;-39
2022/10/11 11:06:48;;;;;;;;;4.75;3.25;;;;;15.89;50.71;101914.22;5102047;27;45458;-39
2022/10/11 11:09:29;;;;;;;;;8.00;4.00;;;;;15.97;50.39;101924.56;5080429;28;45371;-39
2022/10/11 11:12:09;;;;;;;;;4.75;3.75;;;;;15.98;50.63;101923.63;5082517;27;45355;-44
2022/10/11 11:14:56;;;;;;;;;6.75;2.50;;;;;16.00;50.70;101919.16;5101829;27;45353;-39
2022/10/11 11:17:31;;;;;;;;;1.25;0.00;;;;;16.04;50.29;101920.84;5080183;28;45406;-39
2022/10/11 11:20:15;;;;;;;;;5.75;2.50;;;;;16.08;50.19;101919.81;5101363;27;45451;-39
2022/10/11 11:22:48;;;;;;;;;4.75;3.75;;;;;16.15;50.12;101920.50;5101570;27;45331;-40
2022/10/11 11:25:29;;;;;;;;;5.00;3.00;;;;;16.20;49.82;101915.94;5080371;28;45444;-39
2022/10/11 11:28:04;;;;;;;;;5.00;4.00;;;;;16.26;49.84;101914.88;5076821;28;45328;-39
2022/10/11 11:30:36;;;;;;;;;2.50;2.50;;;;;16.31;49.77;101918.22;5092965;27;45289;-40
2022/10/11 11:33:33;;;;;;;;;2.50;1.25;;;;;16.33;49.18;101913.75;5094944;27;45439;-40
2022/10/11 11:36:03;;;;;;;;;3.00;3.00;;;;;16.35;49.59;101905.78;5097433;27;45339;-43
2022/10/11 11:38:43;;;;;;;;;3.50;2.00;;;;;16.37;49.20;101904.81;5090067;27;45212;-39